sensor_id;sensor_type;location;lat;lon;timestamp;pressure;altitude;pressure_sealevel;temperature;humidity
55610;BME280;41486;52.502;13.486;2023-05-09T00:01:15;101882.47;;;9.47;72.60
55610;BME280;41486;52.502;13.486;2023-05-09T00:03:43;101884.53;;;9.41;73.71
55610;BME280;41486;52.502;13.486;2023-05-09T00:06:11;101884.63;;;9.57;72.59
55610;BME280;41486;52.502;13.486;2023-05-09T00:08:41;101883.50;;;9.61;72.44
55610;BME280;41486;52.502;13.486;2023-05-09T00:11:08;101887.31;;;9.55;73.05
55610;BME280;41486;52.502;13.486;2023-05-09T00:13:36;101879.75;;;9.49;73.52
55610;BME280;41486;52.502;13.486;2023-05-09T00:16:05;101884.16;;;9.49;74.12
55610;BME280;41486;52.502;13.486;2023-05-09T00:18:35;101878.91;;;9.49;74.22
55610;BME280;41486;52.502;13.486;2023-05-09T00:21:04;101880.56;;;9.50;74.01
55610;BME280;41486;52.502;13.486;2023-05-09T00:23:32;101880.44;;;9.53;73.56
55610;BME280;41486;52.502;13.486;2023-05-09T00:26:00;101878.81;;;9.50;73.88
55610;BME280;41486;52.502;13.486;2023-05-09T00:28:28;101876.56;;;9.42;74.38
55610;BME280;41486;52.502;13.486;2023-05-09T00:30:56;101878.22;;;9.45;74.92
55610;BME280;41486;52.502;13.486;2023-05-09T00:33:24;101886.00;;;9.46;74.34
55610;BME280;41486;52.502;13.486;2023-05-09T00:35:54;101880.56;;;9.50;74.61
55610;BME280;41486;52.502;13.486;2023-05-09T00:38:22;101873.13;;;9.42;74.68
55610;BME280;41486;52.502;13.486;2023-05-09T00:40:50;101877.34;;;9.44;74.31
55610;BME280;41486;52.502;13.486;2023-05-09T00:43:20;101876.91;;;9.36;75.13
55610;BME280;41486;52.502;13.486;2023-05-09T00:45:48;101870.94;;;9.50;74.67
55610;BME280;41486;52.502;13.486;2023-05-09T00:48:16;101878.56;;;9.21;75.70
55610;BME280;41486;52.502;13.486;2023-05-09T00:50:44;101871.09;;;9.29;75.36
55610;BME280;41486;52.502;13.486;2023-05-09T00:53:15;101873.13;;;9.42;74.49
55610;BME280;41486;52.502;13.486;2023-05-09T00:55:43;101877.31;;;9.28;74.39
55610;BME280;41486;52.502;13.486;2023-05-09T00:58:11;101869.66;;;9.41;73.18
55610;BME280;41486;52.502;13.486;2023-05-09T01:00:39;101865.00;;;9.46;73.12
55610;BME280;41486;52.502;13.486;2023-05-09T01:03:08;101869.88;;;9.37;74.11
55610;BME280;41486;52.502;13.486;2023-05-09T01:05:43;101864.88;;;9.32;73.62
55610;BME280;41486;52.502;13.486;2023-05-09T01:08:22;101859.16;;;9.24;74.14
55610;BME280;41486;52.502;13.486;2023-05-09T01:10:59;101852.56;;;9.32;73.68
55610;BME280;41486;52.502;13.486;2023-05-09T01:13:31;101854.03;;;9.38;72.90
55610;BME280;41486;52.502;13.486;2023-05-09T01:16:07;101847.84;;;9.39;72.55
55610;BME280;41486;52.502;13.486;2023-05-09T01:18:45;101847.69;;;9.42;73.16
55610;BME280;41486;52.502;13.486;2023-05-09T01:21:17;101853.56;;;9.47;72.54
55610;BME280;41486;52.502;13.486;2023-05-09T01:24:15;101851.25;;;9.41;71.49
55610;BME280;41486;52.502;13.486;2023-05-09T01:27:02;101852.25;;;9.39;70.56
55610;BME280;41486;52.502;13.486;2023-05-09T01:29:35;101844.34;;;9.39;71.03
55610;BME280;41486;52.502;13.486;2023-05-09T01:32:08;101852.34;;;9.37;70.58
55610;BME280;41486;52.502;13.486;2023-05-09T01:34:37;101839.88;;;9.41;69.68
55610;BME280;41486;52.502;13.486;2023-05-09T01:37:08;101842.28;;;9.45;69.32
55610;BME280;41486;52.502;13.486;2023-05-09T01:39:39;101843.03;;;9.47;68.90
55610;BME280;41486;52.502;13.486;2023-05-09T01:42:10;101838.88;;;9.43;67.89
55610;BME280;41486;52.502;13.486;2023-05-09T01:44:42;101835.31;;;9.44;67.63
55610;BME280;41486;52.502;13.486;2023-05-09T01:47:12;101836.19;;;9.45;67.33
55610;BME280;41486;52.502;13.486;2023-05-09T01:49:43;101833.63;;;9.43;67.02
55610;BME280;41486;52.502;13.486;2023-05-09T01:52:15;101837.00;;;9.45;66.55
55610;BME280;41486;52.502;13.486;2023-05-09T01:54:45;101829.22;;;9.44;66.39
55610;BME280;41486;52.502;13.486;2023-05-09T01:57:14;101833.09;;;9.37;66.43
55610;BME280;41486;52.502;13.486;2023-05-09T01:59:45;101828.34;;;9.43;65.40
55610;BME280;41486;52.502;13.486;2023-05-09T02:02:14;101835.38;;;9.60;65.76
55610;BME280;41486;52.502;13.486;2023-05-09T02:04:43;101832.94;;;9.40;65.17
55610;BME280;41486;52.502;13.486;2023-05-09T02:07:12;101833.78;;;9.40;64.26
55610;BME280;41486;52.502;13.486;2023-05-09T02:09:40;101830.75;;;9.48;63.40
55610;BME280;41486;52.502;13.486;2023-05-09T02:12:08;101829.81;;;9.49;63.67
55610;BME280;41486;52.502;13.486;2023-05-09T02:14:36;101832.00;;;9.41;62.98
55610;BME280;41486;52.502;13.486;2023-05-09T02:17:06;101832.88;;;9.41;63.15
55610;BME280;41486;52.502;13.486;2023-05-09T02:19:36;101825.50;;;9.48;62.94
55610;BME280;41486;52.502;13.486;2023-05-09T02:22:04;101824.72;;;9.46;61.83
55610;BME280;41486;52.502;13.486;2023-05-09T02:24:32;101830.47;;;9.37;61.65
55610;BME280;41486;52.502;13.486;2023-05-09T02:27:01;101832.00;;;9.41;61.11
55610;BME280;41486;52.502;13.486;2023-05-09T02:29:33;101836.34;;;9.42;61.10
55610;BME280;41486;52.502;13.486;2023-05-09T02:32:10;101829.28;;;9.42;61.17
55610;BME280;41486;52.502;13.486;2023-05-09T02:34:39;101826.38;;;9.31;60.87
55610;BME280;41486;52.502;13.486;2023-05-09T02:37:09;101832.16;;;9.38;61.32
55610;BME280;41486;52.502;13.486;2023-05-09T02:39:38;101834.03;;;9.36;60.44
55610;BME280;41486;52.502;13.486;2023-05-09T02:42:08;101837.66;;;9.33;61.76
55610;BME280;41486;52.502;13.486;2023-05-09T02:44:36;101841.72;;;9.39;60.78
55610;BME280;41486;52.502;13.486;2023-05-09T02:47:06;101836.66;;;9.36;60.95
55610;BME280;41486;52.502;13.486;2023-05-09T02:49:36;101835.34;;;9.27;61.60
55610;BME280;41486;52.502;13.486;2023-05-09T02:52:04;101838.88;;;9.26;61.53
55610;BME280;41486;52.502;13.486;2023-05-09T02:54:32;101828.22;;;9.29;60.63
55610;BME280;41486;52.502;13.486;2023-05-09T02:57:00;101832.78;;;9.43;60.43
55610;BME280;41486;52.502;13.486;2023-05-09T02:59:28;101837.97;;;9.27;60.71
55610;BME280;41486;52.502;13.486;2023-05-09T03:02:00;101831.88;;;9.26;61.23
55610;BME280;41486;52.502;13.486;2023-05-09T03:04:28;101834.88;;;9.36;61.07
55610;BME280;41486;52.502;13.486;2023-05-09T03:06:58;101827.56;;;9.25;60.98
55610;BME280;41486;52.502;13.486;2023-05-09T03:09:30;101824.38;;;9.19;61.27
55610;BME280;41486;52.502;13.486;2023-05-09T03:11:59;101825.56;;;9.13;61.64
55610;BME280;41486;52.502;13.486;2023-05-09T03:14:28;101824.63;;;9.14;62.36
55610;BME280;41486;52.502;13.486;2023-05-09T03:16:57;101824.56;;;9.15;61.79
55610;BME280;41486;52.502;13.486;2023-05-09T03:19:31;101824.56;;;9.15;62.25
55610;BME280;41486;52.502;13.486;2023-05-09T03:22:00;101810.31;;;9.20;61.86
55610;BME280;41486;52.502;13.486;2023-05-09T03:24:31;101814.97;;;9.14;61.35
55610;BME280;41486;52.502;13.486;2023-05-09T03:27:01;101816.81;;;9.30;61.63
55610;BME280;41486;52.502;13.486;2023-05-09T03:29:29;101814.66;;;9.21;61.60
55610;BME280;41486;52.502;13.486;2023-05-09T03:31:57;101817.44;;;9.18;61.67
55610;BME280;41486;52.502;13.486;2023-05-09T03:34:25;101812.94;;;9.20;61.94
55610;BME280;41486;52.502;13.486;2023-05-09T03:36:53;101811.56;;;9.12;62.72
55610;BME280;41486;52.502;13.486;2023-05-09T03:39:23;101813.41;;;9.10;62.39
55610;BME280;41486;52.502;13.486;2023-05-09T03:41:55;101806.41;;;9.11;62.91
55610;BME280;41486;52.502;13.486;2023-05-09T03:44:24;101810.06;;;9.08;63.59
55610;BME280;41486;52.502;13.486;2023-05-09T03:46:52;101813.84;;;9.03;63.85
55610;BME280;41486;52.502;13.486;2023-05-09T03:49:20;101816.28;;;9.06;64.41
55610;BME280;41486;52.502;13.486;2023-05-09T03:51:51;101822.09;;;8.95;65.48
55610;BME280;41486;52.502;13.486;2023-05-09T03:54:19;101819.09;;;9.03;65.22
55610;BME280;41486;52.502;13.486;2023-05-09T03:56:50;101815.31;;;9.08;64.66
55610;BME280;41486;52.502;13.486;2023-05-09T03:59:18;101818.75;;;8.91;65.93
55610;BME280;41486;52.502;13.486;2023-05-09T04:01:46;101812.22;;;8.82;66.82
55610;BME280;41486;52.502;13.486;2023-05-09T04:04:16;101815.69;;;8.83;66.62
55610;BME280;41486;52.502;13.486;2023-05-09T04:06:44;101810.88;;;8.91;66.32
55610;BME280;41486;52.502;13.486;2023-05-09T04:09:14;101816.31;;;8.88;66.93
55610;BME280;41486;52.502;13.486;2023-05-09T04:11:44;101806.56;;;8.90;66.68
55610;BME280;41486;52.502;13.486;2023-05-09T04:14:15;101808.09;;;9.12;65.98
55610;BME280;41486;52.502;13.486;2023-05-09T04:16:44;101803.41;;;9.01;66.13
55610;BME280;41486;52.502;13.486;2023-05-09T04:19:12;101803.47;;;8.99;66.04
55610;BME280;41486;52.502;13.486;2023-05-09T04:21:40;101803.69;;;9.12;65.59
55610;BME280;41486;52.502;13.486;2023-05-09T04:24:08;101807.03;;;8.98;66.37
55610;BME280;41486;52.502;13.486;2023-05-09T04:26:42;101805.41;;;8.96;66.84
55610;BME280;41486;52.502;13.486;2023-05-09T04:29:15;101805.31;;;8.97;67.60
55610;BME280;41486;52.502;13.486;2023-05-09T04:31:48;101804.25;;;9.02;66.43
55610;BME280;41486;52.502;13.486;2023-05-09T04:34:18;101806.41;;;9.11;66.03
55610;BME280;41486;52.502;13.486;2023-05-09T04:36:46;101807.94;;;9.15;66.47
55610;BME280;41486;52.502;13.486;2023-05-09T04:39:14;101804.28;;;9.18;66.48
55610;BME280;41486;52.502;13.486;2023-05-09T04:41:51;101805.41;;;9.13;66.19
55610;BME280;41486;52.502;13.486;2023-05-09T04:44:21;101806.63;;;9.24;66.17
55610;BME280;41486;52.502;13.486;2023-05-09T04:46:50;101806.00;;;9.19;66.22
55610;BME280;41486;52.502;13.486;2023-05-09T04:49:20;101804.94;;;9.23;66.57
55610;BME280;41486;52.502;13.486;2023-05-09T04:51:49;101809.84;;;9.29;65.77
55610;BME280;41486;52.502;13.486;2023-05-09T04:54:17;101807.22;;;9.29;65.47
55610;BME280;41486;52.502;13.486;2023-05-09T04:56:46;101809.03;;;9.44;64.94
55610;BME280;41486;52.502;13.486;2023-05-09T04:59:16;101803.06;;;9.74;63.38
55610;BME280;41486;52.502;13.486;2023-05-09T05:01:46;101800.34;;;9.60;64.59
55610;BME280;41486;52.502;13.486;2023-05-09T05:04:14;101803.16;;;9.57;63.97
55610;BME280;41486;52.502;13.486;2023-05-09T05:06:43;101791.19;;;9.51;64.13
55610;BME280;41486;52.502;13.486;2023-05-09T05:09:11;101799.91;;;9.52;64.44
55610;BME280;41486;52.502;13.486;2023-05-09T05:11:39;101795.75;;;9.63;63.67
55610;BME280;41486;52.502;13.486;2023-05-09T05:14:24;101802.47;;;9.69;63.29
55610;BME280;41486;52.502;13.486;2023-05-09T05:16:53;101796.19;;;9.72;63.76
55610;BME280;41486;52.502;13.486;2023-05-09T05:19:22;101794.00;;;9.80;62.71
55610;BME280;41486;52.502;13.486;2023-05-09T05:21:50;101801.06;;;9.79;61.85
55610;BME280;41486;52.502;13.486;2023-05-09T05:24:18;101796.03;;;9.91;61.87
55610;BME280;41486;52.502;13.486;2023-05-09T05:26:46;101793.09;;;9.97;62.20
55610;BME280;41486;52.502;13.486;2023-05-09T05:29:14;101785.63;;;10.05;61.67
55610;BME280;41486;52.502;13.486;2023-05-09T05:31:44;101796.03;;;10.07;61.17
55610;BME280;41486;52.502;13.486;2023-05-09T05:34:13;101789.34;;;10.17;60.62
55610;BME280;41486;52.502;13.486;2023-05-09T05:36:43;101792.81;;;10.18;59.78
55610;BME280;41486;52.502;13.486;2023-05-09T05:39:11;101786.00;;;10.30;60.70
55610;BME280;41486;52.502;13.486;2023-05-09T05:41:42;101778.78;;;10.33;59.74
55610;BME280;41486;52.502;13.486;2023-05-09T05:44:10;101785.31;;;10.42;59.92
55610;BME280;41486;52.502;13.486;2023-05-09T05:46:38;101782.44;;;10.47;60.11
55610;BME280;41486;52.502;13.486;2023-05-09T05:49:06;101783.19;;;10.49;58.41
55610;BME280;41486;52.502;13.486;2023-05-09T05:51:35;101775.53;;;10.60;59.10
55610;BME280;41486;52.502;13.486;2023-05-09T05:54:05;101769.50;;;10.58;58.48
55610;BME280;41486;52.502;13.486;2023-05-09T05:56:34;101763.34;;;10.73;57.52
55610;BME280;41486;52.502;13.486;2023-05-09T05:59:03;101759.03;;;10.87;56.43
55610;BME280;41486;52.502;13.486;2023-05-09T06:01:31;101762.69;;;10.84;56.92
55610;BME280;41486;52.502;13.486;2023-05-09T06:03:59;101760.84;;;11.01;56.95
55610;BME280;41486;52.502;13.486;2023-05-09T06:06:29;101749.81;;;10.94;55.67
55610;BME280;41486;52.502;13.486;2023-05-09T06:08:59;101750.31;;;11.01;56.07
55610;BME280;41486;52.502;13.486;2023-05-09T06:11:27;101746.63;;;11.03;57.94
55610;BME280;41486;52.502;13.486;2023-05-09T06:13:55;101750.88;;;11.20;57.11
55610;BME280;41486;52.502;13.486;2023-05-09T06:16:23;101747.66;;;11.15;57.09
55610;BME280;41486;52.502;13.486;2023-05-09T06:18:51;101744.09;;;11.31;57.88
55610;BME280;41486;52.502;13.486;2023-05-09T06:21:22;101742.97;;;11.35;56.66
55610;BME280;41486;52.502;13.486;2023-05-09T06:23:49;101738.16;;;11.42;55.40
55610;BME280;41486;52.502;13.486;2023-05-09T06:26:35;101732.69;;;11.45;56.27
55610;BME280;41486;52.502;13.486;2023-05-09T06:29:03;101735.69;;;11.53;57.19
55610;BME280;41486;52.502;13.486;2023-05-09T06:31:33;101732.59;;;11.61;55.96
55610;BME280;41486;52.502;13.486;2023-05-09T06:34:05;101733.31;;;11.63;55.72
55610;BME280;41486;52.502;13.486;2023-05-09T06:36:33;101724.38;;;11.65;55.21
55610;BME280;41486;52.502;13.486;2023-05-09T06:39:01;101723.53;;;11.65;56.04
55610;BME280;41486;52.502;13.486;2023-05-09T06:41:29;101729.03;;;11.75;55.52
55610;BME280;41486;52.502;13.486;2023-05-09T06:43:59;101715.78;;;11.76;55.37
55610;BME280;41486;52.502;13.486;2023-05-09T06:46:28;101713.88;;;11.78;55.19
55610;BME280;41486;52.502;13.486;2023-05-09T06:48:56;101703.97;;;11.82;54.64
55610;BME280;41486;52.502;13.486;2023-05-09T06:51:24;101701.69;;;11.90;54.26
55610;BME280;41486;52.502;13.486;2023-05-09T06:53:52;101704.19;;;11.79;54.18
55610;BME280;41486;52.502;13.486;2023-05-09T06:56:20;101691.75;;;11.81;53.93
55610;BME280;41486;52.502;13.486;2023-05-09T06:58:48;101704.13;;;11.93;54.29
55610;BME280;41486;52.502;13.486;2023-05-09T07:01:18;101699.03;;;12.05;54.13
55610;BME280;41486;52.502;13.486;2023-05-09T07:03:47;101703.25;;;12.07;54.10
55610;BME280;41486;52.502;13.486;2023-05-09T07:06:15;101693.25;;;12.12;53.49
55610;BME280;41486;52.502;13.486;2023-05-09T07:08:43;101681.63;;;12.15;53.29
55610;BME280;41486;52.502;13.486;2023-05-09T07:11:11;101689.06;;;12.23;53.59
55610;BME280;41486;52.502;13.486;2023-05-09T07:13:39;101669.38;;;12.14;52.71
55610;BME280;41486;52.502;13.486;2023-05-09T07:16:07;101665.59;;;12.18;51.48
55610;BME280;41486;52.502;13.486;2023-05-09T07:18:37;101661.41;;;12.28;51.33
55610;BME280;41486;52.502;13.486;2023-05-09T07:21:05;101661.19;;;12.44;51.54
55610;BME280;41486;52.502;13.486;2023-05-09T07:23:33;101661.97;;;12.59;51.36
55610;BME280;41486;52.502;13.486;2023-05-09T07:26:08;101657.09;;;12.53;50.49
55610;BME280;41486;52.502;13.486;2023-05-09T07:28:36;101659.63;;;12.68;50.34
55610;BME280;41486;52.502;13.486;2023-05-09T07:31:07;101639.97;;;12.72;49.28
55610;BME280;41486;52.502;13.486;2023-05-09T07:33:36;101655.31;;;12.67;49.34
55610;BME280;41486;52.502;13.486;2023-05-09T07:36:05;101646.00;;;12.74;48.83
55610;BME280;41486;52.502;13.486;2023-05-09T07:38:33;101629.19;;;12.75;49.08
55610;BME280;41486;52.502;13.486;2023-05-09T07:41:04;101636.06;;;12.90;48.87
55610;BME280;41486;52.502;13.486;2023-05-09T07:43:32;101632.75;;;13.00;48.59
55610;BME280;41486;52.502;13.486;2023-05-09T07:46:01;101630.50;;;13.06;49.09
55610;BME280;41486;52.502;13.486;2023-05-09T07:48:29;101617.72;;;13.13;48.00
55610;BME280;41486;52.502;13.486;2023-05-09T07:51:00;101620.16;;;13.16;47.52
55610;BME280;41486;52.502;13.486;2023-05-09T07:53:28;101612.94;;;13.18;46.71
55610;BME280;41486;52.502;13.486;2023-05-09T07:55:56;101611.56;;;13.25;47.37
55610;BME280;41486;52.502;13.486;2023-05-09T07:58:24;101604.63;;;13.36;47.43
55610;BME280;41486;52.502;13.486;2023-05-09T08:00:54;101597.75;;;13.46;46.81
55610;BME280;41486;52.502;13.486;2023-05-09T08:03:22;101596.06;;;13.45;46.49
55610;BME280;41486;52.502;13.486;2023-05-09T08:05:52;101599.13;;;13.63;46.69
55610;BME280;41486;52.502;13.486;2023-05-09T08:08:22;101596.22;;;13.55;46.07
55610;BME280;41486;52.502;13.486;2023-05-09T08:10:50;101588.69;;;13.62;46.17
55610;BME280;41486;52.502;13.486;2023-05-09T08:13:18;101585.69;;;13.66;45.90
55610;BME280;41486;52.502;13.486;2023-05-09T08:15:53;101585.97;;;13.75;45.71
55610;BME280;41486;52.502;13.486;2023-05-09T08:18:23;101588.28;;;13.91;44.79
55610;BME280;41486;52.502;13.486;2023-05-09T08:20:51;101588.06;;;13.94;44.19
55610;BME280;41486;52.502;13.486;2023-05-09T08:23:18;101593.41;;;14.05;43.97
55610;BME280;41486;52.502;13.486;2023-05-09T08:25:51;101587.75;;;14.10;44.66
55610;BME280;41486;52.502;13.486;2023-05-09T08:28:19;101576.78;;;14.03;42.99
55610;BME280;41486;52.502;13.486;2023-05-09T08:30:50;101580.03;;;14.07;42.80
55610;BME280;41486;52.502;13.486;2023-05-09T08:33:18;101573.19;;;14.15;42.69
55610;BME280;41486;52.502;13.486;2023-05-09T08:35:49;101572.84;;;14.20;43.04
55610;BME280;41486;52.502;13.486;2023-05-09T08:38:25;101571.31;;;14.29;43.17
55610;BME280;41486;52.502;13.486;2023-05-09T08:41:00;101566.34;;;14.35;43.36
55610;BME280;41486;52.502;13.486;2023-05-09T08:43:29;101564.31;;;14.50;43.98
55610;BME280;41486;52.502;13.486;2023-05-09T08:46:03;101575.03;;;14.60;43.05
55610;BME280;41486;52.502;13.486;2023-05-09T08:48:33;101571.81;;;14.68;43.37
55610;BME280;41486;52.502;13.486;2023-05-09T08:51:03;101573.94;;;14.63;43.66
55610;BME280;41486;52.502;13.486;2023-05-09T08:53:31;101569.16;;;14.68;43.30
55610;BME280;41486;52.502;13.486;2023-05-09T08:56:03;101569.41;;;14.76;43.28
55610;BME280;41486;52.502;13.486;2023-05-09T08:58:32;101569.88;;;14.93;43.50
55610;BME280;41486;52.502;13.486;2023-05-09T09:01:01;101568.50;;;14.98;42.66
55610;BME280;41486;52.502;13.486;2023-05-09T09:03:30;101560.53;;;15.10;42.29
55610;BME280;41486;52.502;13.486;2023-05-09T09:05:59;101563.28;;;15.20;42.60
55610;BME280;41486;52.502;13.486;2023-05-09T09:08:30;101551.25;;;15.16;41.75
55610;BME280;41486;52.502;13.486;2023-05-09T09:11:00;101558.69;;;15.22;41.94
55610;BME280;41486;52.502;13.486;2023-05-09T09:13:31;101552.41;;;15.34;42.16
55610;BME280;41486;52.502;13.486;2023-05-09T09:16:04;101554.66;;;15.39;41.98
55610;BME280;41486;52.502;13.486;2023-05-09T09:18:36;101546.06;;;15.46;41.27
55610;BME280;41486;52.502;13.486;2023-05-09T09:21:08;101548.78;;;15.56;40.50
55610;BME280;41486;52.502;13.486;2023-05-09T09:23:38;101539.25;;;15.65;40.58
55610;BME280;41486;52.502;13.486;2023-05-09T09:26:08;101538.97;;;15.68;40.48
55610;BME280;41486;52.502;13.486;2023-05-09T09:28:38;101540.28;;;15.74;39.12
55610;BME280;41486;52.502;13.486;2023-05-09T09:31:19;101542.53;;;15.78;39.62
55610;BME280;41486;52.502;13.486;2023-05-09T09:33:47;101539.78;;;16.01;39.65
55610;BME280;41486;52.502;13.486;2023-05-09T09:36:16;101534.28;;;15.93;38.44
55610;BME280;41486;52.502;13.486;2023-05-09T09:38:56;101535.69;;;16.18;39.97
55610;BME280;41486;52.502;13.486;2023-05-09T09:41:29;101529.69;;;16.26;40.46
55610;BME280;41486;52.502;13.486;2023-05-09T09:44:05;101525.09;;;16.28;39.83
55610;BME280;41486;52.502;13.486;2023-05-09T09:46:40;101521.47;;;16.29;39.84
55610;BME280;41486;52.502;13.486;2023-05-09T09:49:11;101518.69;;;16.40;39.84
55610;BME280;41486;52.502;13.486;2023-05-09T09:51:41;101506.44;;;16.49;40.03
55610;BME280;41486;52.502;13.486;2023-05-09T09:54:10;101501.03;;;16.70;39.84
55610;BME280;41486;52.502;13.486;2023-05-09T09:56:42;101503.03;;;16.88;38.98
55610;BME280;41486;52.502;13.486;2023-05-09T09:59:13;101498.56;;;16.88;38.87
55610;BME280;41486;52.502;13.486;2023-05-09T10:01:56;101505.19;;;17.04;38.48
55610;BME280;41486;52.502;13.486;2023-05-09T10:04:26;101494.25;;;16.97;38.37
55610;BME280;41486;52.502;13.486;2023-05-09T10:06:56;101492.16;;;17.11;37.89
55610;BME280;41486;52.502;13.486;2023-05-09T10:09:25;101487.56;;;17.32;37.44
55610;BME280;41486;52.502;13.486;2023-05-09T10:11:55;101488.78;;;17.28;36.76
55610;BME280;41486;52.502;13.486;2023-05-09T10:14:25;101495.22;;;17.55;36.55
55610;BME280;41486;52.502;13.486;2023-05-09T10:16:54;101488.22;;;18.11;36.32
55610;BME280;41486;52.502;13.486;2023-05-09T10:19:24;101478.19;;;18.33;35.07
55610;BME280;41486;52.502;13.486;2023-05-09T10:21:55;101466.88;;;18.49;34.61
55610;BME280;41486;52.502;13.486;2023-05-09T10:24:26;101484.31;;;19.07;33.64
55610;BME280;41486;52.502;13.486;2023-05-09T10:26:58;101472.75;;;18.99;33.08
55610;BME280;41486;52.502;13.486;2023-05-09T10:29:34;101469.69;;;19.12;32.26
55610;BME280;41486;52.502;13.486;2023-05-09T10:32:14;101469.97;;;19.45;31.84
55610;BME280;41486;52.502;13.486;2023-05-09T10:34:46;101468.84;;;19.11;32.15
55610;BME280;41486;52.502;13.486;2023-05-09T10:37:16;101459.91;;;19.65;32.27
55610;BME280;41486;52.502;13.486;2023-05-09T10:39:45;101448.66;;;19.53;32.03
55610;BME280;41486;52.502;13.486;2023-05-09T10:42:13;101452.50;;;19.50;32.10
55610;BME280;41486;52.502;13.486;2023-05-09T10:44:42;101451.09;;;19.73;31.94
55610;BME280;41486;52.502;13.486;2023-05-09T10:47:11;101456.91;;;19.86;31.32
55610;BME280;41486;52.502;13.486;2023-05-09T10:49:39;101455.16;;;19.77;31.07
55610;BME280;41486;52.502;13.486;2023-05-09T10:52:07;101451.38;;;20.22;31.61
55610;BME280;41486;52.502;13.486;2023-05-09T10:54:36;101431.38;;;19.65;31.71
55610;BME280;41486;52.502;13.486;2023-05-09T10:57:04;101437.81;;;20.15;31.25
55610;BME280;41486;52.502;13.486;2023-05-09T10:59:37;101425.22;;;20.51;30.67
55610;BME280;41486;52.502;13.486;2023-05-09T11:02:11;101421.09;;;20.64;30.10
55610;BME280;41486;52.502;13.486;2023-05-09T11:04:40;101435.53;;;20.88;30.35
55610;BME280;41486;52.502;13.486;2023-05-09T11:07:22;101428.31;;;21.30;29.06
55610;BME280;41486;52.502;13.486;2023-05-09T11:09:51;101425.56;;;21.80;28.42
55610;BME280;41486;52.502;13.486;2023-05-09T11:12:20;101410.38;;;22.90;27.68
55610;BME280;41486;52.502;13.486;2023-05-09T11:14:50;101419.78;;;23.77;27.42
55610;BME280;41486;52.502;13.486;2023-05-09T11:17:30;101415.22;;;23.47;27.08
55610;BME280;41486;52.502;13.486;2023-05-09T11:20:00;101405.41;;;24.95;25.76
55610;BME280;41486;52.502;13.486;2023-05-09T11:22:37;101414.75;;;25.27;24.63
55610;BME280;41486;52.502;13.486;2023-05-09T11:25:08;101400.25;;;25.98;24.25
55610;BME280;41486;52.502;13.486;2023-05-09T11:27:39;101415.88;;;26.10;23.68
55610;BME280;41486;52.502;13.486;2023-05-09T11:30:09;101405.72;;;25.70;23.67
55610;BME280;41486;52.502;13.486;2023-05-09T11:32:44;101400.06;;;27.02;22.85
55610;BME280;41486;52.502;13.486;2023-05-09T11:35:14;101394.81;;;25.50;24.11
55610;BME280;41486;52.502;13.486;2023-05-09T11:37:45;101388.16;;;26.36;22.72
55610;BME280;41486;52.502;13.486;2023-05-09T11:40:14;101388.19;;;26.63;22.63
55610;BME280;41486;52.502;13.486;2023-05-09T11:42:45;101376.41;;;26.77;22.11
55610;BME280;41486;52.502;13.486;2023-05-09T11:45:14;101371.19;;;26.89;22.30
55610;BME280;41486;52.502;13.486;2023-05-09T11:47:45;101365.16;;;25.85;23.00
55610;BME280;41486;52.502;13.486;2023-05-09T11:50:15;101359.47;;;27.49;22.12
55610;BME280;41486;52.502;13.486;2023-05-09T11:52:43;101364.34;;;26.80;22.44
55610;BME280;41486;52.502;13.486;2023-05-09T11:55:12;101356.22;;;27.07;22.10
55610;BME280;41486;52.502;13.486;2023-05-09T11:57:43;101350.81;;;27.00;22.16
55610;BME280;41486;52.502;13.486;2023-05-09T12:00:14;101347.91;;;26.55;22.65
55610;BME280;41486;52.502;13.486;2023-05-09T12:02:43;101341.22;;;27.24;22.22
55610;BME280;41486;52.502;13.486;2023-05-09T12:05:16;101335.13;;;27.49;21.06
55610;BME280;41486;52.502;13.486;2023-05-09T12:07:45;101352.38;;;28.07;21.08
55610;BME280;41486;52.502;13.486;2023-05-09T12:10:15;101337.84;;;28.33;21.04
55610;BME280;41486;52.502;13.486;2023-05-09T12:12:45;101321.03;;;27.47;21.28
55610;BME280;41486;52.502;13.486;2023-05-09T12:15:13;101326.31;;;26.82;22.15
55610;BME280;41486;52.502;13.486;2023-05-09T12:17:43;101324.28;;;27.63;21.58
55610;BME280;41486;52.502;13.486;2023-05-09T12:20:15;101303.81;;;27.21;21.67
55610;BME280;41486;52.502;13.486;2023-05-09T12:22:43;101307.91;;;27.37;21.89
55610;BME280;41486;52.502;13.486;2023-05-09T12:25:11;101312.25;;;25.35;23.11
55610;BME280;41486;52.502;13.486;2023-05-09T12:27:40;101297.41;;;24.11;25.11
55610;BME280;41486;52.502;13.486;2023-05-09T12:30:09;101295.41;;;23.98;25.63
55610;BME280;41486;52.502;13.486;2023-05-09T12:32:41;101296.84;;;23.64;25.93
55610;BME280;41486;52.502;13.486;2023-05-09T12:35:09;101288.69;;;22.97;26.45
55610;BME280;41486;52.502;13.486;2023-05-09T12:37:39;101286.34;;;23.33;26.44
55610;BME280;41486;52.502;13.486;2023-05-09T12:40:09;101281.25;;;23.74;26.32
55610;BME280;41486;52.502;13.486;2023-05-09T12:42:42;101277.91;;;23.21;26.09
55610;BME280;41486;52.502;13.486;2023-05-09T12:45:12;101274.03;;;23.38;26.50
55610;BME280;41486;52.502;13.486;2023-05-09T12:47:40;101273.50;;;23.65;26.09
55610;BME280;41486;52.502;13.486;2023-05-09T12:50:11;101275.38;;;24.01;25.98
55610;BME280;41486;52.502;13.486;2023-05-09T12:52:42;101263.72;;;24.37;25.54
55610;BME280;41486;52.502;13.486;2023-05-09T12:55:28;101255.84;;;25.89;23.59
55610;BME280;41486;52.502;13.486;2023-05-09T12:57:59;101268.34;;;27.63;22.49
55610;BME280;41486;52.502;13.486;2023-05-09T13:00:28;101256.53;;;28.22;21.17